Time;durP1;ratioP1;P1;durP2;ratioP2;P2;SDS_P1;SDS_P2;PMS_P1;PMS_P2;Temp;Humidity;BMP_temperature;BMP_pressure;BME280_temperature;BME280_humidity;BME280_pressure;Samples;Min_cycle;Max_cycle;Signal;HPM_P1;HPM_P2
2022/10/03 00:00:19;;;;;;;17.97;6.87;;;13.80;77.60;;;;;;6240232;23;20291;-93
2022/10/03 00:03:31;;;;;;;18.17;6.60;;;13.80;77.40;;;;;;6246125;23;20178;-88
2022/10/03 00:06:10;;;;;;;11.90;5.53;;;13.70;78.40;;;;;;6151672;23;20613;-89
2022/10/03 00:09:02;;;;;;;15.90;6.53;;;13.70;78.00;;;;;;6150821;23;20212;-88
2022/10/03 00:11:41;;;;;;;12.83;5.60;;;13.70;78.00;;;;;;6221677;23;20178;-88
2022/10/03 00:14:23;;;;;;;13.83;6.53;;;13.70;77.90;;;;;;6241711;23;20206;-89
2022/10/03 00:17:00;;;;;;;13.97;5.83;;;13.60;78.00;;;;;;6243863;23;20200;-89
2022/10/03 00:19:36;;;;;;;15.13;6.23;;;13.60;78.30;;;;;;6245710;23;20195;-90
2022/10/03 00:22:17;;;;;;;15.43;6.40;;;13.60;78.10;;;;;;6243126;23;20174;-89
2022/10/03 00:25:02;;;;;;;12.30;5.53;;;13.50;78.20;;;;;;6241827;23;20254;-90
2022/10/03 00:27:37;;;;;;;18.37;7.27;;;13.60;78.30;;;;;;6244303;23;20195;-89
2022/10/03 00:30:17;;;;;;;20.43;7.10;;;13.50;78.20;;;;;;6243358;23;20574;-89
2022/10/03 00:33:04;;;;;;;16.00;6.10;;;13.50;78.20;;;;;;6244536;23;20867;-91
2022/10/03 00:35:51;;;;;;;13.80;5.87;;;13.50;79.10;;;;;;6243983;23;20164;-89
2022/10/03 00:38:50;;;;;;;15.50;6.53;;;13.50;78.40;;;;;;6243854;23;20183;-89
2022/10/03 00:41:59;;;;;;;21.43;7.63;;;13.50;78.50;;;;;;6242535;23;20165;-89
2022/10/03 00:44:45;;;;;;;14.53;5.47;;;13.50;78.80;;;;;;6197902;23;20181;-89
2022/10/03 00:47:39;;;;;;;17.87;6.17;;;13.40;78.60;;;;;;6242470;23;20196;-89
2022/10/03 00:50:30;;;;;;;16.63;7.17;;;13.40;78.70;;;;;;6242222;23;20499;-89
2022/10/03 00:53:25;;;;;;;13.83;5.80;;;13.40;78.90;;;;;;6242648;23;20203;-87
2022/10/03 00:56:11;;;;;;;12.90;5.53;;;13.40;79.30;;;;;;6224155;23;20236;-90
2022/10/03 00:59:04;;;;;;;11.60;5.47;;;13.40;79.30;;;;;;6243103;23;20199;-89
2022/10/03 01:01:45;;;;;;;17.97;6.77;;;13.40;79.60;;;;;;6243834;23;20174;-88
2022/10/03 01:04:42;;;;;;;15.53;6.53;;;13.30;79.50;;;;;;6247158;23;20191;-89
2022/10/03 01:07:29;;;;;;;17.07;6.67;;;13.30;79.60;;;;;;6254930;23;20193;-91
2022/10/03 01:10:11;;;;;;;10.57;5.70;;;13.30;79.50;;;;;;6252767;23;20167;-89
2022/10/03 01:12:51;;;;;;;20.90;7.97;;;13.30;79.70;;;;;;6240966;23;20203;-90
2022/10/03 01:15:28;;;;;;;16.50;6.33;;;13.30;79.90;;;;;;6240827;23;20203;-89
2022/10/03 01:18:13;;;;;;;17.80;6.03;;;13.30;79.80;;;;;;6240993;23;20196;-89
2022/10/03 01:20:50;;;;;;;11.00;5.17;;;13.30;80.60;;;;;;6241537;23;20194;-88
2022/10/03 01:24:09;;;;;;;24.23;7.70;;;13.30;80.10;;;;;;6239583;23;20170;-88
2022/10/03 01:26:56;;;;;;;10.97;5.13;;;13.20;80.40;;;;;;6240546;23;20183;-88
2022/10/03 01:32:23;;;;;;;15.23;5.70;;;13.20;79.70;;;;;;6242245;23;20173;-88
2022/10/03 01:35:01;;;;;;;13.43;5.70;;;13.20;79.70;;;;;;6241931;23;20187;-89
2022/10/03 01:37:33;;;;;;;11.20;5.53;;;13.20;79.90;;;;;;6242651;23;20632;-88
2022/10/03 01:40:08;;;;;;;16.47;6.27;;;13.20;80.00;;;;;;6241502;23;20194;-92
2022/10/03 01:42:46;;;;;;;14.53;5.63;;;13.10;80.10;;;;;;6248495;23;20171;-89
2022/10/03 01:45:29;;;;;;;17.00;6.37;;;13.10;80.40;;;;;;6247610;23;20225;-89
2022/10/03 01:48:03;;;;;;;19.83;7.60;;;13.10;80.40;;;;;;6243854;23;20183;-93
2022/10/03 01:50:36;;;;;;;12.57;5.40;;;13.10;81.10;;;;;;6217679;23;20539;-88
2022/10/03 01:53:08;;;;;;;17.00;6.60;;;13.10;80.40;;;;;;6241971;23;20164;-88
2022/10/03 01:55:47;;;;;;;9.23;4.93;;;13.10;80.40;;;;;;6216803;23;20173;-88
2022/10/03 01:58:25;;;;;;;13.57;6.23;;;13.00;80.30;;;;;;6241720;23;20192;-88
2022/10/03 02:01:01;;;;;;;16.77;5.70;;;13.10;80.40;;;;;;6241819;23;20186;-89
2022/10/03 02:03:35;;;;;;;10.97;5.00;;;13.10;80.40;;;;;;6242692;23;20230;-89
2022/10/03 02:06:14;;;;;;;14.53;5.83;;;13.00;80.20;;;;;;6243147;23;20164;-90
2022/10/03 02:08:51;;;;;;;15.43;5.50;;;13.00;80.30;;;;;;6243498;23;20209;-88
2022/10/03 02:11:30;;;;;;;12.67;5.73;;;13.00;80.30;;;;;;6242594;23;20169;-88
2022/10/03 02:14:05;;;;;;;14.47;5.50;;;13.00;80.30;;;;;;6242455;23;20249;-87
2022/10/03 02:16:42;;;;;;;11.60;5.10;;;13.00;80.30;;;;;;6241504;23;20534;-90
2022/10/03 02:19:20;;;;;;;14.73;5.83;;;13.00;80.40;;;;;;6241427;23;20200;-88
2022/10/03 02:21:49;;;;;;;12.13;5.33;;;13.00;80.40;;;;;;6241098;23;20482;-91
2022/10/03 02:24:29;;;;;;;14.37;5.90;;;12.90;80.30;;;;;;6240866;23;20171;-89
2022/10/03 02:27:33;;;;;;;13.93;5.67;;;12.90;80.40;;;;;;6243861;23;20160;-90
2022/10/03 02:30:13;;;;;;;17.07;6.53;;;12.90;81.00;;;;;;6243532;23;20181;-92
2022/10/03 02:33:14;;;;;;;13.33;4.73;;;12.90;81.60;;;;;;6244873;23;20164;-89
2022/10/03 02:36:02;;;;;;;15.80;6.13;;;12.80;80.80;;;;;;6241582;23;20171;-89
2022/10/03 02:39:26;;;;;;;20.80;7.50;;;12.80;80.70;;;;;;6241230;23;20626;-90
2022/10/03 02:42:30;;;;;;;11.90;5.43;;;12.80;80.40;;;;;;6238811;23;20179;-88
2022/10/03 02:45:28;;;;;;;12.00;5.30;;;12.80;80.60;;;;;;6218903;23;20543;-89
2022/10/03 02:48:30;;;;;;;13.70;5.70;;;12.80;81.50;;;;;;6241158;23;20196;-88
2022/10/03 02:51:40;;;;;;;19.73;6.40;;;12.70;80.80;;;;;;6240410;23;20254;-88
2022/10/03 02:54:45;;;;;;;20.40;6.37;;;12.70;80.80;;;;;;6239236;23;20176;-89
2022/10/03 02:57:45;;;;;;;14.00;5.57;;;12.70;80.80;;;;;;6230283;23;20178;-89
2022/10/03 03:00:17;;;;;;;15.40;6.10;;;12.70;80.50;;;;;;6180783;23;20251;-89
2022/10/03 03:03:35;;;;;;;14.63;5.30;;;12.70;80.10;;;;;;6241796;23;20178;-89
2022/10/03 03:06:41;;;;;;;18.27;6.10;;;12.60;80.50;;;;;;6241670;23;20722;-89
2022/10/03 03:09:41;;;;;;;19.47;6.50;;;12.60;80.70;;;;;;6215959;23;20280;-89
2022/10/03 03:12:42;;;;;;;19.43;6.00;;;12.60;80.80;;;;;;6179107;23;20221;-89
2022/10/03 03:15:50;;;;;;;18.10;6.63;;;12.60;81.10;;;;;;6240708;23;20270;-88
2022/10/03 03:18:29;;;;;;;11.90;5.07;;;12.50;81.20;;;;;;6232713;23;20241;-88
2022/10/03 03:21:15;;;;;;;15.17;5.93;;;12.50;80.90;;;;;;6241889;23;20197;-88
2022/10/03 03:24:20;;;;;;;19.67;6.67;;;12.50;80.90;;;;;;6241967;23;20185;-89
2022/10/03 03:27:04;;;;;;;11.50;4.80;;;12.50;81.30;;;;;;6148519;23;20248;-90
2022/10/03 03:29:42;;;;;;;17.40;7.27;;;12.50;81.20;;;;;;6149451;23;20189;-89
2022/10/03 03:32:23;;;;;;;10.37;4.93;;;12.40;81.00;;;;;;6213581;23;20171;-89
2022/10/03 03:34:59;;;;;;;10.63;4.87;;;12.40;81.10;;;;;;6241568;23;20168;-89
2022/10/03 03:37:34;;;;;;;19.87;6.73;;;12.40;81.10;;;;;;6241587;23;20588;-88
2022/10/03 03:40:20;;;;;;;14.50;5.30;;;12.40;80.80;;;;;;6243095;23;20362;-88
2022/10/03 03:43:02;;;;;;;11.97;5.73;;;12.40;81.20;;;;;;6241318;23;20535;-89
2022/10/03 03:45:56;;;;;;;12.50;5.43;;;12.40;81.10;;;;;;6241331;23;20182;-88
2022/10/03 03:48:43;;;;;;;17.97;7.07;;;12.40;82.10;;;;;;6235236;23;20212;-89
2022/10/03 03:51:23;;;;;;;22.73;6.43;;;12.30;81.30;;;;;;6240448;23;20172;-88
2022/10/03 03:54:07;;;;;;;15.10;5.77;;;12.30;81.40;;;;;;6242132;23;20166;-87
2022/10/03 03:56:53;;;;;;;9.37;4.77;;;12.30;81.40;;;;;;6241625;23;20172;-88
2022/10/03 03:59:43;;;;;;;16.13;6.13;;;12.30;81.70;;;;;;6246916;23;20206;-89
2022/10/03 04:02:27;;;;;;;11.13;4.70;;;12.30;81.80;;;;;;6240223;23;20182;-88
2022/10/03 04:05:11;;;;;;;18.87;7.00;;;12.30;82.50;;;;;;6242699;23;20643;-89
2022/10/03 04:07:53;;;;;;;10.13;4.93;;;12.30;81.70;;;;;;6244780;23;20180;-89
2022/10/03 04:10:37;;;;;;;23.47;7.67;;;12.30;81.70;;;;;;6242380;23;20199;-89
2022/10/03 04:13:30;;;;;;;12.13;5.53;;;12.20;81.90;;;;;;6244140;23;20673;-89
2022/10/03 04:18:56;;;;;;;12.77;5.20;;;12.20;82.00;;;;;;6247658;23;20194;-90
2022/10/03 04:19:16;;;;;;;13.80;5.77;;;12.20;82.10;;;;;;6244223;23;20206;-91
2022/10/03 04:22:16;;;;;;;13.70;5.60;;;12.20;82.10;;;;;;6243161;23;20621;-89
2022/10/03 04:25:02;;;;;;;18.03;6.07;;;12.20;82.10;;;;;;6242297;23;20179;-89
2022/10/03 04:27:52;;;;;;;12.90;5.30;;;12.20;82.00;;;;;;6242803;23;20492;-88
2022/10/03 04:30:24;;;;;;;18.87;6.37;;;12.20;82.10;;;;;;6192020;23;20175;-88
2022/10/03 04:33:08;;;;;;;17.00;6.33;;;12.20;82.00;;;;;;6241292;23;20247;-89
2022/10/03 04:36:08;;;;;;;21.97;6.60;;;12.20;82.10;;;;;;6242246;23;20176;-88
2022/10/03 04:38:43;;;;;;;12.07;5.37;;;12.10;82.00;;;;;;6222156;23;20261;-88
2022/10/03 04:41:26;;;;;;;12.87;5.67;;;12.10;81.80;;;;;;6242432;23;20215;-88
2022/10/03 04:44:01;;;;;;;10.77;4.43;;;12.10;82.20;;;;;;6243618;23;20852;-88
2022/10/03 04:46:38;;;;;;;10.03;4.97;;;12.10;82.00;;;;;;6241008;23;20183;-88
2022/10/03 04:49:14;;;;;;;12.23;5.53;;;12.10;82.00;;;;;;6240731;23;20282;-88
2022/10/03 04:51:53;;;;;;;14.43;5.10;;;12.10;82.40;;;;;;6239796;23;20169;-88
2022/10/03 04:54:37;;;;;;;16.83;5.97;;;12.00;82.70;;;;;;6240305;23;20163;-88
2022/10/03 04:57:17;;;;;;;19.80;7.17;;;12.00;82.60;;;;;;6245314;23;20229;-89
2022/10/03 04:59:58;;;;;;;15.57;5.53;;;12.00;82.40;;;;;;6242213;23;20172;-88
2022/10/03 05:02:36;;;;;;;15.53;5.97;;;12.00;82.20;;;;;;6244071;23;20540;-88
2022/10/03 05:05:35;;;;;;;18.50;6.67;;;12.00;82.30;;;;;;6265332;23;20244;-88
2022/10/03 05:08:13;;;;;;;9.83;4.70;;;12.00;82.30;;;;;;6230373;23;20263;-88
2022/10/03 05:11:17;;;;;;;11.87;5.40;;;12.00;82.50;;;;;;6249056;23;20207;-89
2022/10/03 05:14:01;;;;;;;13.23;4.67;;;12.00;83.10;;;;;;6241216;23;20195;-89
2022/10/03 05:16:40;;;;;;;17.10;6.23;;;11.90;82.60;;;;;;6247367;23;20179;-89
2022/10/03 05:19:44;;;;;;;14.67;5.33;;;11.90;82.40;;;;;;6243366;23;20163;-88
2022/10/03 05:22:26;;;;;;;12.00;4.53;;;11.90;82.90;;;;;;6245121;23;20189;-92
2022/10/03 05:25:11;;;;;;;11.40;4.97;;;11.90;82.70;;;;;;6249307;23;20667;-87
2022/10/03 05:27:44;;;;;;;12.30;5.07;;;11.90;83.00;;;;;;6248519;23;20170;-93
2022/10/03 05:30:20;;;;;;;13.80;5.97;;;11.90;82.90;;;;;;6252774;23;20192;-89
2022/10/03 05:32:56;;;;;;;10.57;5.03;;;11.90;82.90;;;;;;6252487;23;20173;-88
2022/10/03 05:35:37;;;;;;;14.40;5.90;;;11.90;82.90;;;;;;6248724;23;20194;-88
2022/10/03 05:38:34;;;;;;;12.30;5.57;;;11.80;82.90;;;;;;6256376;23;20186;-91
2022/10/03 05:41:04;;;;;;;10.73;5.77;;;11.80;83.30;;;;;;6255721;23;20183;-88
2022/10/03 05:43:47;;;;;;;13.57;5.23;;;11.80;82.90;;;;;;6248732;23;20215;-88
2022/10/03 05:46:33;;;;;;;18.93;7.27;;;11.80;83.10;;;;;;6250576;23;20172;-89
2022/10/03 05:49:10;;;;;;;25.53;8.93;;;11.80;82.90;;;;;;6246412;23;20179;-89
2022/10/03 05:51:53;;;;;;;11.17;5.23;;;11.80;83.00;;;;;;6246854;23;20620;-95
2022/10/03 05:54:50;;;;;;;16.63;6.90;;;11.70;83.20;;;;;;6244358;23;20227;-89
2022/10/03 05:57:43;;;;;;;19.43;7.40;;;11.70;83.50;;;;;;6242747;23;20208;-88
2022/10/03 06:00:21;;;;;;;17.60;7.20;;;11.70;83.20;;;;;;6243744;23;20187;-89
2022/10/03 06:03:29;;;;;;;13.50;5.80;;;11.70;83.20;;;;;;6267970;22;20198;-89
2022/10/03 06:06:18;;;;;;;15.43;6.37;;;11.70;83.70;;;;;;6267632;23;20206;-91
2022/10/03 06:09:19;;;;;;;19.77;6.77;;;11.70;84.00;;;;;;6266943;23;20207;-89
2022/10/03 06:12:02;;;;;;;16.47;5.77;;;11.70;84.50;;;;;;6223042;23;20460;-88
2022/10/03 06:14:50;;;;;;;18.67;5.80;;;11.70;84.60;;;;;;6249890;23;20276;-89
2022/10/03 06:17:39;;;;;;;16.93;6.27;;;11.70;84.60;;;;;;6249025;23;20218;-91
2022/10/03 06:20:27;;;;;;;13.87;5.17;;;11.70;85.00;;;;;;6248824;23;20925;-88
2022/10/03 06:23:23;;;;;;;15.20;5.60;;;11.60;84.80;;;;;;6244375;23;20671;-89
2022/10/03 06:26:18;;;;;;;12.20;5.30;;;11.60;85.40;;;;;;6243745;23;20172;-88
2022/10/03 06:29:34;;;;;;;13.33;5.67;;;11.60;85.80;;;;;;6243542;23;20605;-89
2022/10/03 06:32:38;;;;;;;12.17;5.47;;;11.70;86.30;;;;;;6243387;23;20793;-88
2022/10/03 06:35:42;;;;;;;16.23;6.33;;;11.70;86.90;;;;;;6241843;23;20171;-89
2022/10/03 06:38:47;;;;;;;13.57;6.00;;;11.70;87.30;;;;;;6235143;23;20281;-89
2022/10/03 06:42:05;;;;;;;12.10;5.73;;;11.70;88.00;;;;;;6252202;23;20630;-89
2022/10/03 06:45:17;;;;;;;13.93;6.03;;;11.70;88.50;;;;;;6227499;23;20199;-88
2022/10/03 06:48:20;;;;;;;18.53;7.17;;;11.70;88.70;;;;;;6252508;23;20194;-89
2022/10/03 06:51:20;;;;;;;10.80;5.40;;;11.80;89.20;;;;;;6253111;23;20203;-90
2022/10/03 06:54:35;;;;;;;14.80;6.07;;;11.80;89.20;;;;;;6252559;23;20206;-89
2022/10/03 06:57:26;;;;;;;10.50;5.13;;;11.80;89.10;;;;;;6131133;23;20261;-90
2022/10/03 07:00:14;;;;;;;11.90;6.10;;;11.90;88.80;;;;;;6242034;23;20391;-87
2022/10/03 07:03:12;;;;;;;16.60;6.90;;;11.90;88.90;;;;;;6243087;23;20172;-88
2022/10/03 07:06:13;;;;;;;18.83;6.97;;;11.90;89.40;;;;;;6175778;23;20184;-88
2022/10/03 07:09:25;;;;;;;18.10;6.97;;;11.90;89.10;;;;;;6241898;23;20635;-88
2022/10/03 07:12:25;;;;;;;13.33;5.97;;;12.00;89.00;;;;;;6242885;23;20183;-89
2022/10/03 07:15:25;;;;;;;13.53;6.27;;;12.00;88.80;;;;;;6163904;23;20175;-88
2022/10/03 07:18:22;;;;;;;18.97;7.33;;;12.00;89.80;;;;;;6211431;23;20420;-89
2022/10/03 07:21:19;;;;;;;17.67;7.07;;;12.10;90.80;;;;;;6185603;23;20649;-89
2022/10/03 07:24:04;;;;;;;18.93;7.10;;;12.20;90.90;;;;;;6211315;23;20200;-89
2022/10/03 07:27:13;;;;;;;23.77;8.77;;;12.20;90.90;;;;;;6214045;23;20165;-89
2022/10/03 07:30:05;;;;;;;17.63;7.17;;;12.30;91.40;;;;;;6210384;23;20237;-89
2022/10/03 07:33:20;;;;;;;17.07;7.07;;;12.40;91.60;;;;;;6218505;23;20802;-91
2022/10/03 07:40:00;;;;;;;22.37;8.53;;;12.60;92.50;;;;;;6225115;23;20549;-90
2022/10/03 07:42:58;;;;;;;18.00;8.10;;;12.70;92.80;;;;;;6224615;23;20181;-93
2022/10/03 07:49:03;;;;;;;16.37;6.93;;;12.80;93.00;;;;;;6245887;23;20207;-90
2022/10/03 07:51:39;;;;;;;14.70;7.63;;;13.00;93.30;;;;;;6255315;22;20163;-90
2022/10/03 07:54:39;;;;;;;25.97;9.43;;;13.10;93.10;;;;;;6254788;23;20337;-89
2022/10/03 07:57:49;;;;;;;17.90;7.17;;;13.20;93.40;;;;;;6254809;23;20168;-89
2022/10/03 08:00:23;;;;;;;15.07;7.43;;;13.30;93.60;;;;;;6253987;23;20174;-90
2022/10/03 08:03:39;;;;;;;25.60;9.50;;;13.40;93.30;;;;;;6244078;23;20184;-89
2022/10/03 08:06:25;;;;;;;22.67;8.47;;;13.50;94.10;;;;;;6182961;23;20174;-89
2022/10/03 08:09:40;;;;;;;20.20;9.33;;;13.70;94.30;;;;;;6244385;23;20175;-89
2022/10/03 08:12:58;;;;;;;18.47;7.63;;;13.80;94.50;;;;;;6121504;23;20264;-90
2022/10/03 08:15:37;;;;;;;18.93;7.50;;;13.90;94.40;;;;;;6145710;23;20202;-90
2022/10/03 08:18:38;;;;;;;21.57;8.60;;;14.10;94.40;;;;;;6215453;23;20182;-89
2022/10/03 08:21:11;;;;;;;19.93;7.53;;;14.20;94.70;;;;;;6218584;23;20169;-91
2022/10/03 08:24:13;;;;;;;18.33;8.37;;;14.30;94.50;;;;;;6217999;23;20175;-90
2022/10/03 08:27:11;;;;;;;19.67;7.50;;;14.50;95.00;;;;;;6215675;23;20176;-90
2022/10/03 08:30:14;;;;;;;18.40;7.47;;;14.70;95.00;;;;;;6216090;23;20223;-89
2022/10/03 08:33:08;;;;;;;13.40;6.10;;;14.80;95.00;;;;;;6219041;23;20167;-90
2022/10/03 08:35:59;;;;;;;13.57;7.00;;;15.00;94.80;;;;;;6212569;23;20161;-90
2022/10/03 08:38:55;;;;;;;20.83;8.00;;;15.20;94.80;;;;;;6219064;23;20171;-93
2022/10/03 08:42:03;;;;;;;25.77;9.10;;;15.40;94.70;;;;;;6233403;22;20196;-90
2022/10/03 08:45:12;;;;;;;18.13;7.63;;;15.60;94.70;;;;;;6228970;22;20183;-89
2022/10/03 08:51:41;;;;;;;15.07;7.37;;;16.20;94.30;;;;;;6217249;23;20192;-90
2022/10/03 08:54:36;;;;;;;16.57;7.03;;;16.50;93.60;;;;;;6178821;23;20176;-90
2022/10/03 08:57:30;;;;;;;21.40;7.63;;;16.90;92.80;;;;;;6215113;23;20178;-90
2022/10/03 09:00:16;;;;;;;24.20;7.80;;;17.10;92.00;;;;;;6170924;23;20183;-90
2022/10/03 09:07:11;;;;;;;18.00;6.93;;;17.70;90.80;;;;;;6173712;23;20183;-90
2022/10/03 09:10:16;;;;;;;20.70;7.43;;;18.00;90.30;;;;;;6096510;23;20234;-91
2022/10/03 09:13:16;;;;;;;12.97;6.00;;;18.20;89.80;;;;;;6056600;23;20725;-90
2022/10/03 09:16:24;;;;;;;18.53;7.03;;;18.40;88.00;;;;;;6229248;23;20179;-92
2022/10/03 09:19:32;;;;;;;12.43;6.17;;;18.60;87.00;;;;;;6221891;23;20210;-91
2022/10/03 09:22:21;;;;;;;16.53;6.73;;;18.80;86.60;;;;;;6100065;23;20174;-88
2022/10/03 09:25:20;;;;;;;17.67;6.00;;;19.00;87.80;;;;;;6211567;23;20172;-89
2022/10/03 09:28:21;;;;;;;10.87;5.97;;;19.20;85.20;;;;;;6212503;23;20272;-90
2022/10/03 09:30:57;;;;;;;10.20;5.27;;;19.40;85.20;;;;;;6209186;23;20213;-88
2022/10/03 09:34:00;;;;;;;16.70;6.27;;;19.70;82.40;;;;;;6233933;22;20171;-89
2022/10/03 09:37:03;;;;;;;16.50;6.50;;;19.80;80.50;;;;;;6215682;23;20165;-90
2022/10/03 09:40:06;;;;;;;14.10;6.77;;;20.00;79.80;;;;;;6234480;23;20176;-89
2022/10/03 09:43:07;;;;;;;10.77;4.63;;;20.30;77.90;;;;;;6239976;23;20175;-90
2022/10/03 09:46:17;;;;;;;11.90;5.47;;;20.40;77.40;;;;;;6129443;23;20183;-89
2022/10/03 09:49:24;;;;;;;18.70;7.10;;;20.60;78.70;;;;;;6220482;23;20199;-93
2022/10/03 09:52:17;;;;;;;15.50;6.60;;;20.70;75.50;;;;;;6213417;23;20192;-93
2022/10/03 10:05:22;;;;;;;14.80;6.27;;;21.20;75.60;;;;;;6190292;23;20530;-95
2022/10/03 10:11:53;;;;;;;10.43;4.23;;;21.30;72.40;;;;;;6187453;23;20255;-95
2022/10/03 10:20:25;;;;;;;27.07;5.30;;;21.30;71.90;;;;;;6247913;22;20211;-92
2022/10/03 10:30:08;;;;;;;5.90;3.73;;;21.50;70.30;;;;;;6243716;23;20263;-94
2022/10/03 10:33:23;;;;;;;11.70;4.03;;;21.60;70.20;;;;;;6246307;23;20176;-94
2022/10/03 10:43:18;;;;;;;16.23;5.47;;;21.90;68.90;;;;;;6260004;23;20221;-95
2022/10/03 10:49:55;;;;;;;8.53;3.13;;;22.20;68.40;;;;;;6091537;23;20219;-94
2022/10/03 10:53:43;;;;;;;11.77;3.87;;;22.30;69.20;;;;;;6257011;23;20173;-94
2022/10/03 10:57:08;;;;;;;8.63;2.73;;;22.50;68.30;;;;;;6105630;23;20232;-94
2022/10/03 11:00:21;;;;;;;11.20;3.57;;;22.70;65.50;;;;;;6116101;23;20178;-94
2022/10/03 11:10:21;;;;;;;9.63;3.03;;;23.30;65.90;;;;;;6132364;23;20178;-94
2022/10/03 11:13:49;;;;;;;13.63;4.37;;;23.40;65.60;;;;;;6027483;23;20538;-93
2022/10/03 11:17:11;;;;;;;13.30;4.37;;;23.60;64.30;;;;;;5913378;24;20181;-94
2022/10/03 11:20:44;;;;;;;8.80;3.23;;;23.80;64.40;;;;;;6071867;23;20727;-94
2022/10/03 11:30:50;;;;;;;7.43;2.83;;;24.20;62.00;;;;;;6078021;23;20182;-94
2022/10/03 11:34:09;;;;;;;9.27;2.93;;;24.30;62.90;;;;;;6098027;23;20202;-92
2022/10/03 11:37:16;;;;;;;10.90;3.63;;;24.40;62.30;;;;;;6069333;23;20261;-92
2022/10/03 11:40:00;;;;;;;9.90;3.33;;;24.50;62.10;;;;;;6152343;23;20264;-91
2022/10/03 11:42:49;;;;;;;9.67;3.87;;;24.60;60.90;;;;;;6152851;23;20181;-91
2022/10/03 11:45:24;;;;;;;10.13;3.87;;;24.60;60.00;;;;;;6222046;23;20175;-92
2022/10/03 11:48:22;;;;;;;9.77;3.60;;;24.60;60.60;;;;;;6250053;23;20171;-92
2022/10/03 11:50:58;;;;;;;12.53;4.33;;;24.70;59.50;;;;;;6260728;23;20214;-93
2022/10/03 11:53:41;;;;;;;9.27;3.53;;;24.80;60.70;;;;;;6251443;23;20168;-93
2022/10/03 11:56:37;;;;;;;11.33;4.27;;;24.90;59.60;;;;;;6251450;22;20275;-91
2022/10/03 11:59:49;;;;;;;7.53;3.00;;;25.00;57.40;;;;;;6245658;23;20174;-94
2022/10/03 12:08:53;;;;;;;7.47;2.10;;;25.20;57.40;;;;;;6227666;23;20176;-95
2022/10/03 12:08:57;;;;;;;7.03;2.70;;;25.20;56.50;;;;;;6245897;23;20680;-92
2022/10/03 12:11:43;;;;;;;8.00;2.57;;;25.30;57.10;;;;;;6245594;23;20203;-92
2022/10/03 12:14:26;;;;;;;8.30;2.90;;;25.30;57.50;;;;;;6244556;23;20908;-93
2022/10/03 12:17:05;;;;;;;10.47;3.27;;;25.30;56.90;;;;;;6256147;23;20186;-93
2022/10/03 12:19:41;;;;;;;8.10;2.93;;;25.30;56.80;;;;;;6248685;23;20250;-93
2022/10/03 12:22:41;;;;;;;12.77;4.80;;;25.20;57.70;;;;;;6228891;23;20179;-94
2022/10/03 12:25:22;;;;;;;9.10;3.17;;;25.30;57.50;;;;;;6116827;23;20172;-94
2022/10/03 12:28:27;;;;;;;14.63;4.47;;;25.30;56.10;;;;;;6263434;23;20166;-93
2022/10/03 12:31:28;;;;;;;;;;;;;;;;;;;;;
2022/10/03 12:34:25;;;;;;;9.07;3.13;;;25.20;56.30;;;;;;6266057;23;20171;-93
2022/10/03 12:37:24;;;;;;;8.60;3.03;;;25.20;56.20;;;;;;6266195;23;20202;-93
2022/10/03 12:40:06;;;;;;;10.70;3.60;;;25.10;55.70;;;;;;6266174;23;20220;-92
2022/10/03 12:43:09;;;;;;;10.97;3.03;;;25.10;56.40;;;;;;6267336;23;20174;-94
2022/10/03 12:45:50;;;;;;;7.70;2.20;;;25.10;55.10;;;;;;6268031;23;20155;-93
2022/10/03 12:48:50;;;;;;;8.23;3.67;;;25.00;55.80;;;;;;6269155;22;20167;-93
2022/10/03 12:51:48;;;;;;;10.20;3.03;;;25.00;55.50;;;;;;6269733;23;20195;-94
2022/10/03 12:54:53;;;;;;;9.07;3.27;;;25.00;55.50;;;;;;6268491;22;20155;-93
2022/10/03 12:57:56;;;;;;;10.43;3.90;;;25.00;56.00;;;;;;6269103;22;20191;-94
2022/10/03 13:00:28;;;;;;;11.43;4.37;;;24.90;55.20;;;;;;6261667;23;20171;-92
2022/10/03 13:03:26;;;;;;;9.17;3.27;;;24.90;55.10;;;;;;6265635;23;20179;-92
2022/10/03 13:06:21;;;;;;;7.13;3.27;;;24.80;55.00;;;;;;6234316;23;20173;-93
2022/10/03 13:09:19;;;;;;;7.73;3.40;;;24.80;55.50;;;;;;6267587;23;20198;-94
2022/10/03 13:12:18;;;;;;;9.00;3.43;;;24.70;55.20;;;;;;6266365;23;20187;-93
2022/10/03 13:15:28;;;;;;;7.23;2.87;;;24.60;55.00;;;;;;6267722;23;20158;-92
2022/10/03 13:18:08;;;;;;;10.47;4.37;;;24.60;54.90;;;;;;6260758;23;20175;-91
2022/10/03 13:20:41;;;;;;;7.00;2.30;;;24.50;55.10;;;;;;6265409;23;20173;-93
2022/10/03 13:23:23;;;;;;;8.60;3.37;;;24.40;55.40;;;;;;6259234;23;20198;-94
2022/10/03 13:26:03;;;;;;;12.97;3.80;;;24.30;55.20;;;;;;6243394;23;20163;-94
2022/10/03 13:28:40;;;;;;;14.70;4.97;;;24.30;55.40;;;;;;6244479;23;20171;-94
2022/10/03 13:31:15;;;;;;;13.33;4.43;;;24.20;56.10;;;;;;6244940;23;20195;-92
2022/10/03 13:33:53;;;;;;;11.17;4.20;;;24.20;55.80;;;;;;6247670;23;20163;-93
2022/10/03 13:36:30;;;;;;;10.90;3.67;;;24.30;55.50;;;;;;6245585;23;20183;-93
2022/10/03 13:39:12;;;;;;;7.97;3.10;;;24.30;55.30;;;;;;6245219;23;20170;-94
2022/10/03 13:42:00;;;;;;;10.43;3.93;;;24.30;56.10;;;;;;6243906;23;20163;-93
2022/10/03 13:44:37;;;;;;;7.03;3.20;;;24.40;56.40;;;;;;6242717;23;20171;-92
2022/10/03 13:47:20;;;;;;;8.50;2.87;;;24.50;57.10;;;;;;6243673;23;20175;-92
2022/10/03 13:49:53;;;;;;;5.97;2.27;;;24.60;55.80;;;;;;6244045;23;20187;-91
2022/10/03 13:52:34;;;;;;;9.73;3.57;;;24.70;55.30;;;;;;6244559;23;20222;-93
2022/10/03 13:55:20;;;;;;;13.93;4.77;;;24.70;55.50;;;;;;6243084;23;20168;-95
2022/10/03 13:58:09;;;;;;;12.20;3.67;;;24.80;54.40;;;;;;6246429;23;20183;-93
2022/10/03 14:00:53;;;;;;;8.50;3.03;;;24.80;54.60;;;;;;6246331;23;20164;-94
2022/10/03 14:03:27;;;;;;;8.37;3.27;;;24.90;54.70;;;;;;6250144;23;20230;-91
2022/10/03 14:06:15;;;;;;;8.23;3.63;;;24.90;54.40;;;;;;6250369;23;20241;-90
2022/10/03 14:09:24;;;;;;;8.53;2.90;;;24.90;53.40;;;;;;6248561;23;20242;-93
2022/10/03 14:12:00;;;;;;;9.67;3.93;;;24.90;53.50;;;;;;6200513;23;20199;-93
2022/10/03 14:15:03;;;;;;;9.37;3.13;;;24.80;54.10;;;;;;6244986;23;20172;-92
2022/10/03 14:17:46;;;;;;;12.67;3.73;;;24.70;53.90;;;;;;6246514;23;20171;-92
2022/10/03 14:20:22;;;;;;;9.20;3.83;;;24.70;54.10;;;;;;6248852;23;20545;-91
2022/10/03 14:23:24;;;;;;;9.20;3.20;;;24.60;53.60;;;;;;6249512;23;20167;-93
2022/10/03 14:26:00;;;;;;;9.10;3.40;;;24.50;53.60;;;;;;6200660;23;20201;-92
2022/10/03 14:28:49;;;;;;;6.50;2.50;;;24.40;53.60;;;;;;6248272;23;20174;-94
2022/10/03 14:31:24;;;;;;;8.90;3.27;;;24.40;53.50;;;;;;6247213;23;20713;-93
2022/10/03 14:34:06;;;;;;;9.50;2.73;;;24.30;54.50;;;;;;6248248;23;20205;-93
2022/10/03 14:36:39;;;;;;;9.00;2.13;;;24.20;53.50;;;;;;6244941;23;20183;-94
2022/10/03 14:39:31;;;;;;;7.83;2.53;;;24.10;53.20;;;;;;6247930;23;20174;-93
2022/10/03 14:42:34;;;;;;;9.77;3.23;;;24.00;53.20;;;;;;6247672;23;20182;-94
2022/10/03 14:45:07;;;;;;;13.40;4.50;;;23.90;52.80;;;;;;6244208;23;20173;-91
2022/10/03 14:47:39;;;;;;;9.07;2.93;;;23.90;53.30;;;;;;6243230;23;20175;-93
2022/10/03 14:50:14;;;;;;;7.00;2.20;;;23.80;53.10;;;;;;6245161;23;20610;-91
2022/10/03 14:52:45;;;;;;;6.50;2.57;;;23.70;52.60;;;;;;6246095;23;20197;-92
2022/10/03 14:55:16;;;;;;;12.13;4.27;;;23.60;52.70;;;;;;6245050;23;20199;-93
2022/10/03 14:57:49;;;;;;;7.53;2.77;;;23.50;52.80;;;;;;6246181;23;20266;-94
2022/10/03 15:00:41;;;;;;;10.30;2.97;;;23.40;52.60;;;;;;6246183;23;20899;-94
2022/10/03 15:03:40;;;;;;;8.13;3.10;;;23.30;52.30;;;;;;6245856;23;20259;-93
2022/10/03 15:06:31;;;;;;;7.03;2.77;;;23.20;52.70;;;;;;6153576;23;20565;-94
2022/10/03 15:09:01;;;;;;;8.03;2.83;;;23.10;52.70;;;;;;6246657;23;20175;-92
2022/10/03 15:11:34;;;;;;;5.77;2.23;;;23.00;53.00;;;;;;6261367;23;20209;-93
2022/10/03 15:14:13;;;;;;;7.67;2.43;;;22.90;52.80;;;;;;6251939;23;20183;-94
2022/10/03 15:16:46;;;;;;;10.20;3.47;;;22.80;52.90;;;;;;6244965;23;20175;-94
2022/10/03 15:19:36;;;;;;;11.23;3.37;;;22.70;53.30;;;;;;6245864;23;20180;-91
2022/10/03 15:22:22;;;;;;;11.07;4.00;;;22.60;53.40;;;;;;6260666;23;20671;-92
2022/10/03 15:24:51;;;;;;;7.93;2.93;;;22.60;53.70;;;;;;6246693;23;20168;-93
2022/10/03 15:27:24;;;;;;;7.03;2.67;;;22.50;53.80;;;;;;6245419;23;20168;-93
2022/10/03 15:29:56;;;;;;;7.67;2.97;;;22.40;54.40;;;;;;6243807;23;20172;-92
2022/10/03 15:32:30;;;;;;;6.17;2.60;;;22.40;54.10;;;;;;6243355;23;20218;-92
2022/10/03 15:35:18;;;;;;;6.57;2.90;;;22.30;54.50;;;;;;6244685;23;20633;-93
2022/10/03 15:37:47;;;;;;;6.20;2.33;;;22.30;55.20;;;;;;6241203;23;20178;-93
2022/10/03 15:40:22;;;;;;;12.53;4.07;;;22.20;54.60;;;;;;6245351;23;20693;-90
2022/10/03 15:43:03;;;;;;;12.70;3.40;;;22.20;54.60;;;;;;6242982;23;20187;-91
2022/10/03 15:46:13;;;;;;;7.53;2.83;;;22.10;54.60;;;;;;6249451;23;20167;-91
2022/10/03 15:48:52;;;;;;;10.30;2.17;;;22.00;54.30;;;;;;6218390;23;20178;-92